»·PEaware :: N441PW CYCQ-TSG

N441PW :: CYCQ-TSG

FLIGHT INFORMATION

Flight Status: Arrived
Operator: Privately registered:
United States
More flights under this callsign
Pilot: Stacy K. (11621)
Aircraft: CESSNA 404 TITAN
(C404)
More flights by this aircraft type
Origin: CYCQ Chetwynd
Canada
Destination: TSG Tanacross
United States
More flights between these airports :: More routes between these airports
Route: YE YYE YQH ZW YXY DB YXQ ORT
File this flight plan on PilotEdge
Remarks:
Altitude:
(Current/Filed)
10,500ft
Speed:
(Current/Filed)
190kts
Departed: 28-Jun-19 12:18 PM
Arrived: 28-Jun-19 04:50 PM
Distance/Time
Traveled:
799nm/4:32
Distance/Time
To Go:
Arrived

Flight Plot

Page will automatically refresh every two minutes.

Flight plan parsing failed; only flown route is shown


Map Options




Map Legend


Flown Route
Filed Route
Departure Airport
Arrival Airport
Navaid (VOR, NDB)
Fix

Horizontal Profiles

Position Reports

Time Latitude Longitude Heading Altitude Ground
Speed
28-Jun-19 12:14 55.689392 -121.618291 72 2004ft 0kts
28-Jun-19 12:15 55.689392 -121.618291 72 2004ft 0kts
28-Jun-19 12:15 55.688618 -121.618945 249 2004ft 17kts
28-Jun-19 12:17 55.686234 -121.632118 251 2004ft 17kts
28-Jun-19 12:18 55.686363 -121.631436 73 2005ft 71kts
28-Jun-19 12:18 55.694266 -121.590884 67 2808ft 125kts
28-Jun-19 12:20 55.726049 -121.583284 307 3781ft 157kts
28-Jun-19 12:21 55.755918 -121.641223 332 4566ft 161kts
28-Jun-19 12:21 55.791881 -121.660249 348 5238ft 162kts
28-Jun-19 12:22 55.835468 -121.674705 353 6040ft 157kts
28-Jun-19 12:23 55.878247 -121.688717 354 6837ft 155kts
28-Jun-19 12:24 55.920440 -121.702401 354 7640ft 153kts
28-Jun-19 12:25 55.962217 -121.716224 355 8433ft 152kts
28-Jun-19 12:26 56.004884 -121.730157 356 9244ft 161kts
28-Jun-19 12:27 56.049881 -121.745001 355 10051ft 166kts
28-Jun-19 12:28 56.097103 -121.760570 354 10503ft 183kts
28-Jun-19 12:29 56.148816 -121.777778 354 10502ft 192kts
28-Jun-19 12:30 56.201629 -121.795266 354 10502ft 193kts
28-Jun-19 12:31 56.254641 -121.812869 354 10501ft 194kts
28-Jun-19 12:32 56.307663 -121.830583 353 10493ft 194kts
28-Jun-19 12:33 56.360737 -121.848423 353 10498ft 194kts
28-Jun-19 12:34 56.414033 -121.866528 353 10497ft 194kts
28-Jun-19 12:35 56.467117 -121.884118 354 10499ft 194kts
28-Jun-19 12:36 56.520397 -121.902122 353 10497ft 194kts
28-Jun-19 12:37 56.573607 -121.920171 353 10501ft 195kts
28-Jun-19 12:38 56.626975 -121.938169 353 10499ft 195kts
28-Jun-19 12:39 56.680564 -121.956541 353 10501ft 196kts
28-Jun-19 12:40 56.734156 -121.974860 353 10501ft 196kts
28-Jun-19 12:41 56.787678 -121.993195 353 10502ft 196kts
28-Jun-19 12:42 56.841411 -122.011665 352 10504ft 196kts
28-Jun-19 12:43 56.895142 -122.030194 352 10502ft 196kts
28-Jun-19 12:44 56.949085 -122.048844 352 10507ft 197kts
28-Jun-19 12:45 57.003010 -122.067534 352 10507ft 197kts
28-Jun-19 12:46 57.057138 -122.086330 352 10510ft 198kts
28-Jun-19 12:47 57.111365 -122.105280 352 10511ft 198kts
28-Jun-19 12:48 57.165677 -122.124254 351 10513ft 199kts
28-Jun-19 12:49 57.220203 -122.143374 351 10516ft 199kts
28-Jun-19 12:50 57.274629 -122.162546 351 10518ft 199kts
28-Jun-19 12:51 57.329416 -122.181838 351 10520ft 200kts
28-Jun-19 12:52 57.384089 -122.201213 351 10523ft 200kts
28-Jun-19 12:53 57.438936 -122.220692 351 10525ft 201kts
28-Jun-19 12:54 57.493999 -122.240305 351 10528ft 201kts
28-Jun-19 12:55 57.548854 -122.259905 351 10530ft 201kts
28-Jun-19 12:56 57.603942 -122.279647 351 10533ft 201kts
28-Jun-19 12:57 57.659126 -122.299487 351 10535ft 201kts
28-Jun-19 12:58 57.714162 -122.319332 351 10538ft 202kts
28-Jun-19 12:59 57.769407 -122.339317 351 10540ft 202kts
28-Jun-19 13:00 57.824615 -122.359351 351 10543ft 202kts
28-Jun-19 13:01 57.879913 -122.379480 351 10545ft 202kts
28-Jun-19 13:02 57.935202 -122.399669 351 10547ft 202kts
28-Jun-19 13:03 57.990297 -122.419851 350 10549ft 202kts
28-Jun-19 13:04 58.045804 -122.440242 350 10562ft 203kts
28-Jun-19 13:05 58.101893 -122.460919 350 10563ft 205kts
28-Jun-19 13:06 58.158191 -122.481744 350 10556ft 204kts
28-Jun-19 13:07 58.213694 -122.502332 350 10557ft 203kts
28-Jun-19 13:08 58.269129 -122.522958 350 10580ft 205kts
28-Jun-19 13:09 58.326030 -122.544213 350 10560ft 205kts
28-Jun-19 13:10 58.381911 -122.565151 350 10578ft 205kts
28-Jun-19 13:11 58.438639 -122.586466 349 10576ft 206kts
28-Jun-19 13:12 58.495378 -122.607867 349 10584ft 206kts
28-Jun-19 13:13 58.552406 -122.629441 349 10561ft 205kts
28-Jun-19 13:14 58.608011 -122.650543 349 10573ft 203kts
28-Jun-19 13:15 58.663963 -122.671846 349 10564ft 203kts
28-Jun-19 13:16 58.719403 -122.693026 349 10579ft 203kts
28-Jun-19 13:17 58.775730 -122.714617 349 10564ft 204kts
28-Jun-19 13:18 58.816294 -122.784061 302 10588ft 205kts
28-Jun-19 13:19 58.847326 -122.878921 302 10558ft 206kts
28-Jun-19 13:20 58.878044 -122.973086 302 10565ft 205kts
28-Jun-19 13:21 58.904941 -123.071827 294 10542ft 204kts
28-Jun-19 13:22 58.928344 -123.171414 294 10544ft 202kts
28-Jun-19 13:23 58.951336 -123.270132 294 10544ft 201kts
28-Jun-19 13:24 58.974320 -123.369392 294 10542ft 201kts
28-Jun-19 13:25 58.997117 -123.468314 294 10541ft 201kts
28-Jun-19 13:26 59.019833 -123.567340 293 10542ft 200kts
28-Jun-19 13:27 59.042501 -123.666619 293 10543ft 201kts
28-Jun-19 13:28 59.065000 -123.765620 293 10541ft 201kts
28-Jun-19 13:29 59.087478 -123.864993 293 10540ft 200kts
28-Jun-19 13:30 59.109835 -123.964295 293 10540ft 200kts
28-Jun-19 13:31 59.132084 -124.063587 293 10539ft 200kts
28-Jun-19 13:32 59.154237 -124.162920 293 10539ft 199kts
28-Jun-19 13:33 59.176170 -124.261728 293 10540ft 199kts
28-Jun-19 13:34 59.198056 -124.360788 293 10538ft 199kts
28-Jun-19 13:35 59.219913 -124.460189 293 10538ft 199kts
28-Jun-19 13:36 59.241645 -124.559491 293 10537ft 199kts
28-Jun-19 13:37 59.263366 -124.659215 293 10537ft 199kts
28-Jun-19 13:38 59.285066 -124.759333 293 10537ft 200kts
28-Jun-19 13:39 59.306727 -124.859757 293 10540ft 200kts
28-Jun-19 13:40 59.328395 -124.960689 292 10537ft 200kts
28-Jun-19 13:41 59.349883 -125.061288 292 10537ft 199kts
28-Jun-19 13:42 59.371190 -125.161523 293 10542ft 199kts
28-Jun-19 13:43 59.392399 -125.261775 292 10540ft 199kts
28-Jun-19 13:44 59.413655 -125.362749 292 10500ft 199kts
28-Jun-19 13:45 59.434742 -125.463418 292 10500ft 199kts
28-Jun-19 13:46 59.455675 -125.563838 292 10501ft 200kts
28-Jun-19 13:47 59.476766 -125.665527 292 10501ft 200kts
28-Jun-19 13:48 59.497744 -125.767181 292 10502ft 199kts
28-Jun-19 13:49 59.518539 -125.868445 292 10503ft 199kts
28-Jun-19 13:50 59.539259 -125.969857 292 10503ft 199kts
28-Jun-19 13:51 59.559661 -126.070217 292 10503ft 199kts
28-Jun-19 13:52 59.580277 -126.172128 292 10500ft 200kts
28-Jun-19 13:53 59.600780 -126.274005 292 10502ft 199kts
28-Jun-19 13:54 59.621260 -126.376287 292 10502ft 199kts
28-Jun-19 13:55 59.641570 -126.478244 292 10503ft 199kts
28-Jun-19 13:56 59.661861 -126.580626 292 10504ft 200kts
28-Jun-19 13:57 59.682096 -126.683250 291 10505ft 200kts
28-Jun-19 13:58 59.701460 -126.781957 291 10506ft 200kts
28-Jun-19 13:59 59.721501 -126.884636 291 10507ft 200kts
28-Jun-19 14:00 59.741481 -126.987547 291 10508ft 200kts
28-Jun-19 14:01 59.761439 -127.090878 291 10509ft 200kts
28-Jun-19 14:02 59.780790 -127.191586 291 10510ft 200kts
28-Jun-19 14:03 59.799918 -127.291662 291 10511ft 201kts
28-Jun-19 14:04 59.816619 -127.379446 291 10511ft 201kts
28-Jun-19 14:05 59.835924 -127.481431 291 10513ft 201kts
28-Jun-19 14:06 59.855498 -127.585339 291 10513ft 201kts
28-Jun-19 14:07 59.875010 -127.689543 291 10514ft 201kts
28-Jun-19 14:08 59.894505 -127.794210 291 10515ft 201kts
28-Jun-19 14:09 59.913862 -127.898689 291 10516ft 201kts
28-Jun-19 14:10 59.933141 -128.003314 291 10516ft 201kts
28-Jun-19 14:11 59.952406 -128.108445 291 10517ft 201kts
28-Jun-19 14:12 59.971529 -128.213360 291 10518ft 201kts
28-Jun-19 14:13 59.990556 -128.318350 291 10518ft 201kts
28-Jun-19 14:15 60.009525 -128.423595 290 10509ft 201kts
28-Jun-19 14:16 60.028421 -128.529024 290 10509ft 200kts
28-Jun-19 14:17 60.047087 -128.633753 290 10509ft 200kts
28-Jun-19 14:18 60.065708 -128.738810 290 10510ft 200kts
28-Jun-19 14:19 60.084131 -128.844047 287 10522ft 202kts
28-Jun-19 14:20 60.090127 -128.954477 275 10508ft 201kts
28-Jun-19 14:21 60.094402 -129.066390 275 10510ft 200kts
28-Jun-19 14:22 60.098432 -129.177491 275 10509ft 200kts
28-Jun-19 14:23 60.102361 -129.288960 275 10509ft 200kts
28-Jun-19 14:24 60.106148 -129.399001 274 10508ft 201kts
28-Jun-19 14:25 60.109907 -129.511052 274 10507ft 201kts
28-Jun-19 14:26 60.113564 -129.622861 274 10506ft 201kts
28-Jun-19 14:27 60.117049 -129.732274 274 10505ft 202kts
28-Jun-19 14:28 60.120490 -129.843205 274 10504ft 202kts
28-Jun-19 14:29 60.123868 -129.955189 274 10503ft 202kts
28-Jun-19 14:29 60.126648 -130.048474 274 10502ft 203kts
28-Jun-19 14:31 60.130387 -130.179853 274 10500ft 202kts
28-Jun-19 14:32 60.133489 -130.292549 274 10498ft 202kts
28-Jun-19 14:32 60.135995 -130.386476 273 10499ft 202kts
28-Jun-19 14:34 60.139415 -130.517420 274 10495ft 201kts
28-Jun-19 14:35 60.142249 -130.629655 273 10498ft 201kts
28-Jun-19 14:35 60.144481 -130.722948 273 10497ft 200kts
28-Jun-19 14:37 60.147549 -130.853217 273 10495ft 200kts
28-Jun-19 14:37 60.149592 -130.946219 273 10501ft 200kts
28-Jun-19 14:38 60.151998 -131.057917 273 10493ft 199kts
28-Jun-19 14:39 60.154384 -131.169317 273 10492ft 199kts
28-Jun-19 14:40 60.156629 -131.280501 273 10484ft 199kts
28-Jun-19 14:41 60.158737 -131.391917 273 10481ft 200kts
28-Jun-19 14:42 60.160820 -131.503275 273 10488ft 200kts
28-Jun-19 14:43 60.162770 -131.615211 274 10490ft 200kts
28-Jun-19 14:44 60.164802 -131.727355 273 10487ft 201kts
28-Jun-19 14:45 60.166432 -131.839588 272 10486ft 201kts
28-Jun-19 14:46 60.167990 -131.952170 273 10480ft 202kts
28-Jun-19 14:47 60.169694 -132.065412 272 10484ft 202kts
28-Jun-19 14:48 60.171266 -132.177803 273 10499ft 201kts
28-Jun-19 14:49 60.172647 -132.288909 272 10499ft 200kts
28-Jun-19 14:50 60.173857 -132.401052 273 10488ft 201kts
28-Jun-19 14:51 60.175417 -132.513531 273 10506ft 201kts
28-Jun-19 14:52 60.176468 -132.625213 272 10499ft 200kts
28-Jun-19 14:53 60.178486 -132.736420 283 10500ft 198kts
28-Jun-19 14:54 60.197369 -132.839842 292 10499ft 197kts
28-Jun-19 14:55 60.217797 -132.943083 292 10490ft 202kts
28-Jun-19 14:56 60.237640 -133.046550 292 10499ft 197kts
28-Jun-19 14:57 60.257353 -133.149000 292 10496ft 196kts
28-Jun-19 14:58 60.276865 -133.251405 291 10498ft 196kts
28-Jun-19 14:59 60.296303 -133.354102 291 10498ft 196kts
28-Jun-19 15:00 60.315623 -133.457104 291 10499ft 196kts
28-Jun-19 15:01 60.335152 -133.560259 292 10495ft 198kts
28-Jun-19 15:02 60.354505 -133.663822 292 10503ft 197kts
28-Jun-19 15:03 60.373574 -133.767989 290 10495ft 197kts
28-Jun-19 15:04 60.392960 -133.871600 291 10506ft 197kts
28-Jun-19 15:05 60.412116 -133.975613 291 10502ft 196kts
28-Jun-19 15:06 60.431003 -134.079026 291 10504ft 196kts
28-Jun-19 15:07 60.449741 -134.182842 291 10506ft 196kts
28-Jun-19 15:08 60.468681 -134.286571 291 10512ft 196kts
28-Jun-19 15:09 60.487344 -134.390426 291 10520ft 195kts
28-Jun-19 15:10 60.505884 -134.494239 290 10507ft 196kts
28-Jun-19 15:11 60.524392 -134.598559 291 10506ft 195kts
28-Jun-19 15:12 60.542825 -134.702441 291 10502ft 195kts
28-Jun-19 15:13 60.561082 -134.806194 290 10504ft 195kts
28-Jun-19 15:14 60.579276 -134.910337 290 10508ft 195kts
28-Jun-19 15:15 60.597474 -135.014151 291 10510ft 194kts
28-Jun-19 15:16 60.615481 -135.118316 291 10511ft 194kts
28-Jun-19 15:17 60.635421 -135.220589 294 10511ft 194kts
28-Jun-19 15:18 60.656566 -135.322017 294 10510ft 195kts
28-Jun-19 15:19 60.677435 -135.424433 294 10492ft 195kts
28-Jun-19 15:20 60.698281 -135.526601 294 10497ft 195kts
28-Jun-19 15:21 60.718911 -135.628767 294 10496ft 195kts
28-Jun-19 15:22 60.739474 -135.731120 294 10501ft 194kts
28-Jun-19 15:23 60.760013 -135.833685 294 10499ft 194kts
28-Jun-19 15:24 60.780364 -135.935923 294 10502ft 194kts
28-Jun-19 15:25 60.800690 -136.038586 294 10500ft 194kts
28-Jun-19 15:26 60.820886 -136.141176 293 10500ft 194kts
28-Jun-19 15:27 60.840962 -136.244020 293 10504ft 194kts
28-Jun-19 15:28 60.861027 -136.346881 294 10502ft 193kts
28-Jun-19 15:29 60.880946 -136.449181 293 10503ft 193kts
28-Jun-19 15:30 60.900774 -136.551983 293 10502ft 193kts
28-Jun-19 15:31 60.920567 -136.654847 293 10497ft 193kts
28-Jun-19 15:32 60.940169 -136.757117 293 10501ft 193kts
28-Jun-19 15:33 60.959717 -136.860313 293 10500ft 193kts
28-Jun-19 15:34 60.979149 -136.963353 293 10504ft 193kts
28-Jun-19 15:35 60.998478 -137.066416 293 10506ft 193kts
28-Jun-19 15:36 61.017826 -137.169867 293 10507ft 193kts
28-Jun-19 15:37 61.037041 -137.273306 293 10508ft 193kts
28-Jun-19 15:38 61.056288 -137.376684 293 10511ft 193kts
28-Jun-19 15:39 61.075428 -137.480476 292 10512ft 193kts
28-Jun-19 15:40 61.094558 -137.584496 293 10521ft 194kts
28-Jun-19 15:41 61.113666 -137.688938 291 10511ft 193kts
28-Jun-19 15:42 61.132045 -137.792527 292 10518ft 192kts
28-Jun-19 15:43 61.150713 -137.896043 292 10522ft 192kts
28-Jun-19 15:44 61.169296 -138.000115 292 10528ft 193kts
28-Jun-19 15:45 61.188131 -138.104705 291 10518ft 195kts
28-Jun-19 15:46 61.206714 -138.209636 292 10531ft 194kts
28-Jun-19 15:47 61.225262 -138.315171 290 10522ft 194kts
28-Jun-19 15:48 61.243407 -138.420794 290 10529ft 194kts
28-Jun-19 15:49 61.261516 -138.526651 290 10524ft 194kts
28-Jun-19 15:50 61.279950 -138.631450 290 10541ft 193kts
28-Jun-19 15:51 61.298070 -138.736806 291 10536ft 193kts
28-Jun-19 15:52 61.316366 -138.842154 290 10534ft 194kts
28-Jun-19 15:53 61.334363 -138.947840 290 10537ft 193kts
28-Jun-19 15:54 61.368196 -139.031173 321 10538ft 193kts
28-Jun-19 15:55 61.410268 -139.101034 321 10536ft 192kts
28-Jun-19 15:56 61.451855 -139.171100 320 10535ft 193kts
28-Jun-19 15:57 61.493650 -139.241905 321 10533ft 193kts
28-Jun-19 15:58 61.535323 -139.313530 320 10535ft 193kts
28-Jun-19 15:59 61.576802 -139.384480 320 10535ft 192kts
28-Jun-19 16:00 61.618709 -139.455651 320 10500ft 192kts
28-Jun-19 16:01 61.660154 -139.527001 319 10499ft 192kts
28-Jun-19 16:02 61.701438 -139.598307 319 10496ft 191kts
28-Jun-19 16:03 61.742728 -139.669874 320 10496ft 191kts
28-Jun-19 16:04 61.783817 -139.741271 319 10498ft 191kts
28-Jun-19 16:05 61.825031 -139.812964 320 10497ft 191kts
28-Jun-19 16:06 61.866297 -139.885638 320 10485ft 193kts
28-Jun-19 16:07 61.907611 -139.957877 319 10498ft 193kts
28-Jun-19 16:08 61.948664 -140.030851 319 10482ft 192kts
28-Jun-19 16:09 61.989729 -140.103281 318 10500ft 190kts
28-Jun-19 16:10 62.030576 -140.175667 319 10368ft 197kts
28-Jun-19 16:11 62.073171 -140.253562 320 9715ft 203kts
28-Jun-19 16:12 62.116825 -140.330118 318 9074ft 202kts
28-Jun-19 16:13 62.160207 -140.406685 319 8498ft 201kts
28-Jun-19 16:14 62.203479 -140.485832 318 7788ft 205kts
28-Jun-19 16:15 62.246709 -140.565012 319 7084ft 204kts
28-Jun-19 16:16 62.289972 -140.643227 319 6521ft 199kts
28-Jun-19 16:17 62.330927 -140.717934 319 6503ft 190kts
28-Jun-19 16:18 62.371444 -140.792222 319 6503ft 190kts
28-Jun-19 16:19 62.411634 -140.866153 319 6504ft 190kts
28-Jun-19 16:20 62.451522 -140.942247 318 6509ft 191kts
28-Jun-19 16:21 62.491379 -141.018778 318 6503ft 191kts
28-Jun-19 16:22 62.531195 -141.095308 318 6501ft 192kts
28-Jun-19 16:23 62.571189 -141.172413 318 6499ft 192kts
28-Jun-19 16:24 62.611183 -141.249855 318 6495ft 192kts
28-Jun-19 16:25 62.651041 -141.327329 318 6490ft 192kts
28-Jun-19 16:26 62.690998 -141.405292 318 6497ft 192kts
28-Jun-19 16:27 62.730763 -141.483144 318 6493ft 192kts
28-Jun-19 16:28 62.770551 -141.561336 318 6506ft 192kts
28-Jun-19 16:30 62.810238 -141.639633 317 6502ft 192kts
28-Jun-19 16:31 62.849978 -141.718378 317 6499ft 192kts
28-Jun-19 16:32 62.889571 -141.797125 317 6498ft 192kts
28-Jun-19 16:33 62.929257 -141.876357 317 6497ft 192kts
28-Jun-19 16:34 62.965705 -141.961601 320 6499ft 192kts
28-Jun-19 16:35 63.009275 -142.036279 319 6014ft 201kts
28-Jun-19 16:36 63.051452 -142.117417 318 5514ft 200kts
28-Jun-19 16:37 63.093048 -142.198597 315 5017ft 199kts
28-Jun-19 16:38 63.134436 -142.279899 318 4515ft 198kts
28-Jun-19 16:39 63.174939 -142.362269 314 4016ft 197kts
28-Jun-19 16:40 63.212829 -142.449803 313 3515ft 196kts
28-Jun-19 16:41 63.247794 -142.543264 308 3016ft 196kts
28-Jun-19 16:42 63.281185 -142.635964 308 2792ft 189kts
28-Jun-19 16:43 63.315204 -142.724224 312 2604ft 187kts
28-Jun-19 16:44 63.350281 -142.808200 312 2592ft 183kts
28-Jun-19 16:45 63.380541 -142.898063 284 2594ft 183kts
28-Jun-19 16:46 63.380966 -143.011507 268 2591ft 183kts
28-Jun-19 16:47 63.378874 -143.124809 268 2589ft 174kts
28-Jun-19 16:48 63.375975 -143.217004 269 2338ft 143kts
28-Jun-19 16:49 63.375376 -143.298166 272 1664ft 114kts
28-Jun-19 16:50 63.375283 -143.332238 217 1553ft 1kts
28-Jun-19 16:51 63.374416 -143.339297 188 1553ft 15kts
28-Jun-19 16:51 63.371182 -143.336785 261 1553ft 6kts
28-Jun-19 16:53 63.371227 -143.336931 337 1553ft 0kts
28-Jun-19 16:53 63.371227 -143.336931 337 1553ft 0kts
28-Jun-19 16:54 63.371227 -143.336931 337 1553ft 0kts
28-Jun-19 16:56 63.371227 -143.336931 337 1553ft 0kts
28-Jun-19 16:56 63.371227 -143.336931 337 1553ft 0kts
28-Jun-19 16:57 63.371227 -143.336931 337 1553ft 0kts
28-Jun-19 16:58 63.371227 -143.336931 337 1553ft 0kts
28-Jun-19 16:59 63.371227 -143.336931 337 1553ft 0kts

Navigation Log

Ident Type
Flight plan parsing failed, navigation log unavailable